sensor_id;sensor_type;location;lat;lon;timestamp;P1;durP1;ratioP1;P2;durP2;ratioP2
46713;SDS011;32445;51.376;10.874;2023-03-03T00:01:07;30.70;;;22.83;;
46713;SDS011;32445;51.376;10.874;2023-03-03T00:04:07;35.92;;;25.45;;
46713;SDS011;32445;51.376;10.874;2023-03-03T00:07:08;30.33;;;23.33;;
46713;SDS011;32445;51.376;10.874;2023-03-03T00:10:10;39.88;;;26.23;;
46713;SDS011;32445;51.376;10.874;2023-03-03T00:13:14;33.97;;;24.23;;
46713;SDS011;32445;51.376;10.874;2023-03-03T00:19:31;40.60;;;26.52;;
46713;SDS011;32445;51.376;10.874;2023-03-03T00:22:38;36.55;;;24.55;;
46713;SDS011;32445;51.376;10.874;2023-03-03T00:25:40;36.38;;;24.40;;
46713;SDS011;32445;51.376;10.874;2023-03-03T00:28:43;33.45;;;25.10;;
46713;SDS011;32445;51.376;10.874;2023-03-03T00:31:46;37.60;;;26.50;;
46713;SDS011;32445;51.376;10.874;2023-03-03T00:34:46;34.60;;;23.95;;
46713;SDS011;32445;51.376;10.874;2023-03-03T00:37:47;39.22;;;27.50;;
46713;SDS011;32445;51.376;10.874;2023-03-03T00:40:53;31.77;;;23.80;;
46713;SDS011;32445;51.376;10.874;2023-03-03T00:43:53;34.78;;;23.40;;
46713;SDS011;32445;51.376;10.874;2023-03-03T00:46:53;29.25;;;23.80;;
46713;SDS011;32445;51.376;10.874;2023-03-03T00:53:14;33.75;;;24.77;;
46713;SDS011;32445;51.376;10.874;2023-03-03T00:56:16;33.80;;;25.30;;
46713;SDS011;32445;51.376;10.874;2023-03-03T00:59:16;31.85;;;22.95;;
46713;SDS011;32445;51.376;10.874;2023-03-03T01:02:16;42.80;;;27.67;;
46713;SDS011;32445;51.376;10.874;2023-03-03T01:05:19;36.25;;;24.42;;
46713;SDS011;32445;51.376;10.874;2023-03-03T01:08:20;32.38;;;24.10;;
46713;SDS011;32445;51.376;10.874;2023-03-03T01:11:24;33.50;;;23.85;;
46713;SDS011;32445;51.376;10.874;2023-03-03T01:14:27;36.63;;;22.65;;
46713;SDS011;32445;51.376;10.874;2023-03-03T01:17:27;34.45;;;22.80;;
46713;SDS011;32445;51.376;10.874;2023-03-03T01:20:28;33.90;;;23.17;;
46713;SDS011;32445;51.376;10.874;2023-03-03T01:23:28;31.05;;;22.83;;
46713;SDS011;32445;51.376;10.874;2023-03-03T01:26:29;29.92;;;22.08;;
46713;SDS011;32445;51.376;10.874;2023-03-03T01:29:30;23.33;;;19.50;;
46713;SDS011;32445;51.376;10.874;2023-03-03T01:32:30;25.00;;;18.15;;
46713;SDS011;32445;51.376;10.874;2023-03-03T01:35:31;28.42;;;19.27;;
46713;SDS011;32445;51.376;10.874;2023-03-03T01:38:34;26.45;;;18.90;;
46713;SDS011;32445;51.376;10.874;2023-03-03T01:41:35;25.48;;;19.20;;
46713;SDS011;32445;51.376;10.874;2023-03-03T01:44:35;21.58;;;16.83;;
46713;SDS011;32445;51.376;10.874;2023-03-03T01:47:35;23.60;;;18.08;;
46713;SDS011;32445;51.376;10.874;2023-03-03T01:50:55;23.73;;;18.58;;
46713;SDS011;32445;51.376;10.874;2023-03-03T01:53:59;26.25;;;17.77;;
46713;SDS011;32445;51.376;10.874;2023-03-03T01:57:02;22.58;;;17.40;;
46713;SDS011;32445;51.376;10.874;2023-03-03T02:00:10;23.40;;;18.42;;
46713;SDS011;32445;51.376;10.874;2023-03-03T02:03:11;22.77;;;16.77;;
46713;SDS011;32445;51.376;10.874;2023-03-03T02:06:12;19.08;;;15.52;;
46713;SDS011;32445;51.376;10.874;2023-03-03T02:09:20;19.10;;;16.27;;
46713;SDS011;32445;51.376;10.874;2023-03-03T02:12:35;18.00;;;14.60;;
46713;SDS011;32445;51.376;10.874;2023-03-03T02:15:39;19.50;;;15.82;;
46713;SDS011;32445;51.376;10.874;2023-03-03T02:18:40;18.60;;;14.57;;
46713;SDS011;32445;51.376;10.874;2023-03-03T02:21:40;20.08;;;15.68;;
46713;SDS011;32445;51.376;10.874;2023-03-03T02:24:46;18.42;;;15.25;;
46713;SDS011;32445;51.376;10.874;2023-03-03T02:27:50;24.42;;;17.40;;
46713;SDS011;32445;51.376;10.874;2023-03-03T02:30:55;24.00;;;16.60;;
46713;SDS011;32445;51.376;10.874;2023-03-03T02:33:56;23.02;;;16.48;;
46713;SDS011;32445;51.376;10.874;2023-03-03T02:36:57;17.80;;;15.35;;
46713;SDS011;32445;51.376;10.874;2023-03-03T02:39:57;21.20;;;16.38;;
46713;SDS011;32445;51.376;10.874;2023-03-03T02:42:58;20.92;;;17.10;;
46713;SDS011;32445;51.376;10.874;2023-03-03T02:46:01;21.80;;;16.52;;
46713;SDS011;32445;51.376;10.874;2023-03-03T02:49:02;17.73;;;15.80;;
46713;SDS011;32445;51.376;10.874;2023-03-03T02:52:05;19.55;;;16.23;;
46713;SDS011;32445;51.376;10.874;2023-03-03T02:55:08;17.13;;;14.88;;
46713;SDS011;32445;51.376;10.874;2023-03-03T02:58:09;17.42;;;14.13;;
46713;SDS011;32445;51.376;10.874;2023-03-03T03:01:09;17.10;;;15.05;;
46713;SDS011;32445;51.376;10.874;2023-03-03T03:07:21;17.60;;;15.13;;
46713;SDS011;32445;51.376;10.874;2023-03-03T03:10:21;15.52;;;13.95;;
46713;SDS011;32445;51.376;10.874;2023-03-03T03:13:22;14.57;;;13.27;;
46713;SDS011;32445;51.376;10.874;2023-03-03T03:16:23;14.95;;;13.48;;
46713;SDS011;32445;51.376;10.874;2023-03-03T03:19:23;14.80;;;13.05;;
46713;SDS011;32445;51.376;10.874;2023-03-03T03:22:24;14.57;;;13.02;;
46713;SDS011;32445;51.376;10.874;2023-03-03T03:25:24;12.50;;;11.30;;
46713;SDS011;32445;51.376;10.874;2023-03-03T03:28:24;13.43;;;12.23;;
46713;SDS011;32445;51.376;10.874;2023-03-03T03:31:25;13.30;;;11.98;;
46713;SDS011;32445;51.376;10.874;2023-03-03T03:34:25;14.07;;;12.77;;
46713;SDS011;32445;51.376;10.874;2023-03-03T03:37:26;13.77;;;12.57;;
46713;SDS011;32445;51.376;10.874;2023-03-03T03:40:26;16.65;;;13.25;;
46713;SDS011;32445;51.376;10.874;2023-03-03T03:43:27;17.77;;;14.63;;
46713;SDS011;32445;51.376;10.874;2023-03-03T03:46:27;16.92;;;14.25;;
46713;SDS011;32445;51.376;10.874;2023-03-03T03:49:28;13.75;;;12.40;;
46713;SDS011;32445;51.376;10.874;2023-03-03T03:52:28;15.07;;;13.50;;
46713;SDS011;32445;51.376;10.874;2023-03-03T03:55:28;13.85;;;12.57;;
46713;SDS011;32445;51.376;10.874;2023-03-03T03:58:28;12.23;;;10.60;;
46713;SDS011;32445;51.376;10.874;2023-03-03T04:01:29;12.65;;;11.48;;
46713;SDS011;32445;51.376;10.874;2023-03-03T04:04:29;14.05;;;12.75;;
46713;SDS011;32445;51.376;10.874;2023-03-03T04:07:30;13.75;;;12.30;;
46713;SDS011;32445;51.376;10.874;2023-03-03T04:10:30;13.32;;;12.02;;
46713;SDS011;32445;51.376;10.874;2023-03-03T04:13:31;12.55;;;11.35;;
46713;SDS011;32445;51.376;10.874;2023-03-03T04:16:34;13.55;;;12.15;;
46713;SDS011;32445;51.376;10.874;2023-03-03T04:19:34;13.90;;;12.60;;
46713;SDS011;32445;51.376;10.874;2023-03-03T04:22:34;14.98;;;13.57;;
46713;SDS011;32445;51.376;10.874;2023-03-03T04:25:35;14.10;;;12.90;;
46713;SDS011;32445;51.376;10.874;2023-03-03T04:28:35;14.23;;;12.88;;
46713;SDS011;32445;51.376;10.874;2023-03-03T04:31:35;13.13;;;11.93;;
46713;SDS011;32445;51.376;10.874;2023-03-03T04:34:36;13.25;;;12.00;;
46713;SDS011;32445;51.376;10.874;2023-03-03T04:37:36;13.32;;;12.00;;
46713;SDS011;32445;51.376;10.874;2023-03-03T04:40:39;13.45;;;12.15;;
46713;SDS011;32445;51.376;10.874;2023-03-03T04:43:40;13.55;;;12.18;;
46713;SDS011;32445;51.376;10.874;2023-03-03T04:46:41;12.95;;;11.90;;
46713;SDS011;32445;51.376;10.874;2023-03-03T04:49:41;13.75;;;12.40;;
46713;SDS011;32445;51.376;10.874;2023-03-03T04:52:41;12.68;;;11.43;;
46713;SDS011;32445;51.376;10.874;2023-03-03T04:55:42;13.65;;;12.35;;
46713;SDS011;32445;51.376;10.874;2023-03-03T04:58:42;14.98;;;13.48;;
46713;SDS011;32445;51.376;10.874;2023-03-03T05:01:42;15.50;;;13.05;;
46713;SDS011;32445;51.376;10.874;2023-03-03T05:04:45;12.98;;;11.70;;
46713;SDS011;32445;51.376;10.874;2023-03-03T05:07:45;15.50;;;13.85;;
46713;SDS011;32445;51.376;10.874;2023-03-03T05:10:46;13.93;;;12.52;;
46713;SDS011;32445;51.376;10.874;2023-03-03T05:13:50;14.32;;;12.98;;
46713;SDS011;32445;51.376;10.874;2023-03-03T05:16:50;15.30;;;13.02;;
46713;SDS011;32445;51.376;10.874;2023-03-03T05:19:50;16.02;;;14.40;;
46713;SDS011;32445;51.376;10.874;2023-03-03T05:22:51;15.68;;;13.98;;
46713;SDS011;32445;51.376;10.874;2023-03-03T05:25:51;14.35;;;13.10;;
46713;SDS011;32445;51.376;10.874;2023-03-03T05:28:52;13.30;;;12.00;;
46713;SDS011;32445;51.376;10.874;2023-03-03T05:31:52;15.25;;;13.40;;
46713;SDS011;32445;51.376;10.874;2023-03-03T05:34:52;14.70;;;13.23;;
46713;SDS011;32445;51.376;10.874;2023-03-03T05:37:53;13.88;;;12.40;;
46713;SDS011;32445;51.376;10.874;2023-03-03T05:40:54;16.65;;;13.65;;
46713;SDS011;32445;51.376;10.874;2023-03-03T05:43:54;15.88;;;14.23;;
46713;SDS011;32445;51.376;10.874;2023-03-03T05:46:54;20.98;;;16.00;;
46713;SDS011;32445;51.376;10.874;2023-03-03T05:49:56;14.63;;;13.10;;
46713;SDS011;32445;51.376;10.874;2023-03-03T05:52:57;22.40;;;17.50;;
46713;SDS011;32445;51.376;10.874;2023-03-03T05:55:57;18.25;;;15.88;;
46713;SDS011;32445;51.376;10.874;2023-03-03T05:58:57;16.92;;;15.23;;
46713;SDS011;32445;51.376;10.874;2023-03-03T06:01:58;18.40;;;14.77;;
46713;SDS011;32445;51.376;10.874;2023-03-03T06:04:58;14.13;;;12.73;;
46713;SDS011;32445;51.376;10.874;2023-03-03T06:07:58;15.30;;;13.80;;
46713;SDS011;32445;51.376;10.874;2023-03-03T06:10:59;13.05;;;11.80;;
46713;SDS011;32445;51.376;10.874;2023-03-03T06:13:59;15.05;;;13.45;;
46713;SDS011;32445;51.376;10.874;2023-03-03T06:17:00;13.02;;;11.82;;
46713;SDS011;32445;51.376;10.874;2023-03-03T06:20:00;15.63;;;13.10;;
46713;SDS011;32445;51.376;10.874;2023-03-03T06:23:02;12.82;;;11.65;;
46713;SDS011;32445;51.376;10.874;2023-03-03T06:26:02;12.60;;;11.40;;
46713;SDS011;32445;51.376;10.874;2023-03-03T06:29:03;15.77;;;14.25;;
46713;SDS011;32445;51.376;10.874;2023-03-03T06:32:03;17.40;;;14.25;;
46713;SDS011;32445;51.376;10.874;2023-03-03T06:35:04;14.95;;;12.15;;
46713;SDS011;32445;51.376;10.874;2023-03-03T06:38:04;15.57;;;13.40;;
46713;SDS011;32445;51.376;10.874;2023-03-03T06:41:05;14.77;;;13.23;;
46713;SDS011;32445;51.376;10.874;2023-03-03T06:44:07;15.48;;;13.93;;
46713;SDS011;32445;51.376;10.874;2023-03-03T06:47:07;15.07;;;12.82;;
46713;SDS011;32445;51.376;10.874;2023-03-03T06:50:09;13.50;;;12.20;;
46713;SDS011;32445;51.376;10.874;2023-03-03T06:53:12;15.07;;;13.65;;
46713;SDS011;32445;51.376;10.874;2023-03-03T06:56:14;13.43;;;12.02;;
46713;SDS011;32445;51.376;10.874;2023-03-03T06:59:16;13.48;;;12.23;;
46713;SDS011;32445;51.376;10.874;2023-03-03T07:02:18;15.93;;;13.85;;
46713;SDS011;32445;51.376;10.874;2023-03-03T07:05:20;20.08;;;17.25;;
46713;SDS011;32445;51.376;10.874;2023-03-03T07:08:23;21.35;;;16.92;;
46713;SDS011;32445;51.376;10.874;2023-03-03T07:11:25;25.05;;;17.40;;
46713;SDS011;32445;51.376;10.874;2023-03-03T07:14:25;25.30;;;18.52;;
46713;SDS011;32445;51.376;10.874;2023-03-03T07:17:25;24.75;;;18.30;;
46713;SDS011;32445;51.376;10.874;2023-03-03T07:20:32;18.25;;;16.20;;
46713;SDS011;32445;51.376;10.874;2023-03-03T07:23:38;17.23;;;14.65;;
46713;SDS011;32445;51.376;10.874;2023-03-03T07:26:42;22.27;;;15.75;;
46713;SDS011;32445;51.376;10.874;2023-03-03T07:29:44;18.50;;;15.50;;
46713;SDS011;32445;51.376;10.874;2023-03-03T07:32:46;18.02;;;14.52;;
46713;SDS011;32445;51.376;10.874;2023-03-03T07:35:48;25.52;;;15.98;;
46713;SDS011;32445;51.376;10.874;2023-03-03T07:38:59;22.20;;;15.77;;
46713;SDS011;32445;51.376;10.874;2023-03-03T07:42:23;16.45;;;14.75;;
46713;SDS011;32445;51.376;10.874;2023-03-03T07:45:30;19.63;;;15.77;;
46713;SDS011;32445;51.376;10.874;2023-03-03T07:48:36;18.17;;;15.23;;
46713;SDS011;32445;51.376;10.874;2023-03-03T07:51:39;17.65;;;14.88;;
46713;SDS011;32445;51.376;10.874;2023-03-03T07:54:43;18.83;;;14.85;;
46713;SDS011;32445;51.376;10.874;2023-03-03T07:57:46;15.52;;;13.30;;
46713;SDS011;32445;51.376;10.874;2023-03-03T08:04:28;19.88;;;16.13;;
46713;SDS011;32445;51.376;10.874;2023-03-03T08:07:37;21.20;;;15.63;;
46713;SDS011;32445;51.376;10.874;2023-03-03T08:13:47;16.15;;;14.52;;
46713;SDS011;32445;51.376;10.874;2023-03-03T08:16:48;17.25;;;13.57;;
46713;SDS011;32445;51.376;10.874;2023-03-03T08:19:49;14.73;;;13.23;;
46713;SDS011;32445;51.376;10.874;2023-03-03T08:22:50;14.13;;;12.63;;
46713;SDS011;32445;51.376;10.874;2023-03-03T08:25:50;14.35;;;12.80;;
46713;SDS011;32445;51.376;10.874;2023-03-03T08:28:52;13.40;;;12.13;;
46713;SDS011;32445;51.376;10.874;2023-03-03T08:31:53;15.67;;;13.43;;
46713;SDS011;32445;51.376;10.874;2023-03-03T08:34:53;13.90;;;12.48;;
46713;SDS011;32445;51.376;10.874;2023-03-03T08:37:53;12.77;;;11.60;;
46713;SDS011;32445;51.376;10.874;2023-03-03T08:40:54;12.63;;;11.20;;
46713;SDS011;32445;51.376;10.874;2023-03-03T08:43:54;13.10;;;10.43;;
46713;SDS011;32445;51.376;10.874;2023-03-03T08:46:55;10.00;;;9.10;;
46713;SDS011;32445;51.376;10.874;2023-03-03T08:49:55;13.02;;;11.85;;
46713;SDS011;32445;51.376;10.874;2023-03-03T08:52:55;13.02;;;11.93;;
46713;SDS011;32445;51.376;10.874;2023-03-03T08:55:57;12.90;;;11.60;;
46713;SDS011;32445;51.376;10.874;2023-03-03T08:58:57;18.48;;;11.88;;
46713;SDS011;32445;51.376;10.874;2023-03-03T09:01:57;12.75;;;11.57;;
46713;SDS011;32445;51.376;10.874;2023-03-03T09:04:58;13.48;;;10.23;;
46713;SDS011;32445;51.376;10.874;2023-03-03T09:07:58;12.02;;;10.85;;
46713;SDS011;32445;51.376;10.874;2023-03-03T09:10:59;14.07;;;12.67;;
46713;SDS011;32445;51.376;10.874;2023-03-03T09:14:05;12.50;;;11.27;;
46713;SDS011;32445;51.376;10.874;2023-03-03T09:17:18;12.43;;;11.25;;
46713;SDS011;32445;51.376;10.874;2023-03-03T09:20:35;11.43;;;10.32;;
46713;SDS011;32445;51.376;10.874;2023-03-03T09:23:36;11.10;;;10.10;;
46713;SDS011;32445;51.376;10.874;2023-03-03T09:29:47;10.55;;;9.65;;
46713;SDS011;32445;51.376;10.874;2023-03-03T09:32:48;10.77;;;9.65;;
46713;SDS011;32445;51.376;10.874;2023-03-03T09:39:25;10.52;;;9.63;;
46713;SDS011;32445;51.376;10.874;2023-03-03T09:42:35;10.30;;;9.40;;
46713;SDS011;32445;51.376;10.874;2023-03-03T09:46:03;9.95;;;8.98;;
46713;SDS011;32445;51.376;10.874;2023-03-03T09:49:24;10.82;;;9.90;;
46713;SDS011;32445;51.376;10.874;2023-03-03T09:52:35;9.90;;;8.67;;
46713;SDS011;32445;51.376;10.874;2023-03-03T09:59:26;10.05;;;8.60;;
46713;SDS011;32445;51.376;10.874;2023-03-03T10:12:47;10.82;;;9.93;;
46713;SDS011;32445;51.376;10.874;2023-03-03T10:32:39;7.68;;;6.85;;
46713;SDS011;32445;51.376;10.874;2023-03-03T10:42:58;9.23;;;7.00;;
46713;SDS011;32445;51.376;10.874;2023-03-03T11:07:59;11.15;;;7.05;;
46713;SDS011;32445;51.376;10.874;2023-03-03T11:11:58;10.98;;;6.47;;
46713;SDS011;32445;51.376;10.874;2023-03-03T11:39:09;7.25;;;6.35;;
46713;SDS011;32445;51.376;10.874;2023-03-03T11:42:20;7.07;;;6.38;;
46713;SDS011;32445;51.376;10.874;2023-03-03T11:45:42;7.82;;;6.80;;
46713;SDS011;32445;51.376;10.874;2023-03-03T11:52:04;8.68;;;7.22;;
46713;SDS011;32445;51.376;10.874;2023-03-03T11:55:22;9.10;;;8.40;;
46713;SDS011;32445;51.376;10.874;2023-03-03T11:58:29;9.23;;;8.45;;
46713;SDS011;32445;51.376;10.874;2023-03-03T12:05:03;9.52;;;8.63;;
46713;SDS011;32445;51.376;10.874;2023-03-03T12:08:17;10.93;;;8.20;;
46713;SDS011;32445;51.376;10.874;2023-03-03T12:11:27;9.10;;;8.40;;
46713;SDS011;32445;51.376;10.874;2023-03-03T12:21:20;8.13;;;7.43;;
46713;SDS011;32445;51.376;10.874;2023-03-03T12:24:32;10.10;;;9.18;;
46713;SDS011;32445;51.376;10.874;2023-03-03T12:30:58;8.85;;;8.05;;
46713;SDS011;32445;51.376;10.874;2023-03-03T12:34:32;8.85;;;7.93;;
46713;SDS011;32445;51.376;10.874;2023-03-03T12:44:05;8.95;;;8.15;;
46713;SDS011;32445;51.376;10.874;2023-03-03T12:47:24;9.55;;;8.85;;
46713;SDS011;32445;51.376;10.874;2023-03-03T13:00:52;8.48;;;7.68;;
46713;SDS011;32445;51.376;10.874;2023-03-03T13:04:49;8.32;;;7.53;;
46713;SDS011;32445;51.376;10.874;2023-03-03T13:15:21;9.02;;;7.50;;
46713;SDS011;32445;51.376;10.874;2023-03-03T13:25:24;8.07;;;7.47;;
46713;SDS011;32445;51.376;10.874;2023-03-03T13:36:11;8.73;;;7.97;;
46713;SDS011;32445;51.376;10.874;2023-03-03T13:39:22;8.40;;;7.73;;
46713;SDS011;32445;51.376;10.874;2023-03-03T13:46:13;8.07;;;7.45;;
46713;SDS011;32445;51.376;10.874;2023-03-03T13:56:48;8.70;;;8.00;;
46713;SDS011;32445;51.376;10.874;2023-03-03T14:10:48;10.02;;;8.98;;
46713;SDS011;32445;51.376;10.874;2023-03-03T14:14:39;10.40;;;9.10;;
46713;SDS011;32445;51.376;10.874;2023-03-03T14:21:39;9.52;;;8.52;;
46713;SDS011;32445;51.376;10.874;2023-03-03T14:25:01;9.32;;;8.57;;
46713;SDS011;32445;51.376;10.874;2023-03-03T14:28:26;9.00;;;8.30;;
46713;SDS011;32445;51.376;10.874;2023-03-03T14:31:45;9.57;;;8.68;;
46713;SDS011;32445;51.376;10.874;2023-03-03T14:35:00;9.57;;;8.70;;
46713;SDS011;32445;51.376;10.874;2023-03-03T14:41:45;9.10;;;8.40;;
46713;SDS011;32445;51.376;10.874;2023-03-03T14:44:52;8.82;;;8.13;;
46713;SDS011;32445;51.376;10.874;2023-03-03T14:47:58;8.70;;;7.78;;
46713;SDS011;32445;51.376;10.874;2023-03-03T14:51:24;9.00;;;8.07;;
46713;SDS011;32445;51.376;10.874;2023-03-03T14:55:07;9.63;;;8.45;;
46713;SDS011;32445;51.376;10.874;2023-03-03T14:58:48;8.73;;;7.93;;
46713;SDS011;32445;51.376;10.874;2023-03-03T15:02:07;8.73;;;7.93;;
46713;SDS011;32445;51.376;10.874;2023-03-03T15:05:29;10.00;;;8.65;;
46713;SDS011;32445;51.376;10.874;2023-03-03T15:16:33;9.35;;;8.65;;
46713;SDS011;32445;51.376;10.874;2023-03-03T15:19:40;8.43;;;7.72;;
46713;SDS011;32445;51.376;10.874;2023-03-03T15:26:24;10.10;;;9.18;;
46713;SDS011;32445;51.376;10.874;2023-03-03T15:29:40;9.10;;;8.32;;
46713;SDS011;32445;51.376;10.874;2023-03-03T15:32:59;8.75;;;7.95;;
46713;SDS011;32445;51.376;10.874;2023-03-03T15:36:12;9.68;;;8.88;;
46713;SDS011;32445;51.376;10.874;2023-03-03T15:42:50;10.27;;;9.38;;
46713;SDS011;32445;51.376;10.874;2023-03-03T15:52:42;11.93;;;8.93;;
46713;SDS011;32445;51.376;10.874;2023-03-03T15:56:03;10.45;;;9.40;;
46713;SDS011;32445;51.376;10.874;2023-03-03T16:08:53;12.38;;;11.32;;
46713;SDS011;32445;51.376;10.874;2023-03-03T16:12:17;14.32;;;12.85;;
46713;SDS011;32445;51.376;10.874;2023-03-03T16:18:36;16.60;;;14.95;;
46713;SDS011;32445;51.376;10.874;2023-03-03T16:31:33;22.90;;;17.85;;
46713;SDS011;32445;51.376;10.874;2023-03-03T16:45:25;19.30;;;16.90;;
46713;SDS011;32445;51.376;10.874;2023-03-03T16:55:04;24.83;;;18.88;;
46713;SDS011;32445;51.376;10.874;2023-03-03T16:58:21;25.42;;;19.80;;
46713;SDS011;32445;51.376;10.874;2023-03-03T17:01:36;26.25;;;19.63;;
46713;SDS011;32445;51.376;10.874;2023-03-03T17:04:48;22.70;;;18.70;;
46713;SDS011;32445;51.376;10.874;2023-03-03T17:21:00;24.83;;;19.40;;
46713;SDS011;32445;51.376;10.874;2023-03-03T17:24:05;27.00;;;20.23;;
46713;SDS011;32445;51.376;10.874;2023-03-03T17:31:31;27.10;;;18.40;;
46713;SDS011;32445;51.376;10.874;2023-03-03T17:47:10;23.20;;;20.13;;
46713;SDS011;32445;51.376;10.874;2023-03-03T18:21:06;27.90;;;21.65;;
46713;SDS011;32445;51.376;10.874;2023-03-03T18:24:13;25.90;;;20.08;;
46713;SDS011;32445;51.376;10.874;2023-03-03T18:27:28;24.60;;;19.17;;
46713;SDS011;32445;51.376;10.874;2023-03-03T18:30:52;25.48;;;20.52;;
46713;SDS011;32445;51.376;10.874;2023-03-03T18:33:59;27.52;;;20.17;;
46713;SDS011;32445;51.376;10.874;2023-03-03T18:40:28;24.98;;;19.45;;
46713;SDS011;32445;51.376;10.874;2023-03-03T18:46:45;25.25;;;20.10;;
46713;SDS011;32445;51.376;10.874;2023-03-03T18:50:48;23.30;;;19.25;;
46713;SDS011;32445;51.376;10.874;2023-03-03T19:00:23;26.50;;;19.85;;
46713;SDS011;32445;51.376;10.874;2023-03-03T19:03:29;22.48;;;19.05;;
46713;SDS011;32445;51.376;10.874;2023-03-03T19:06:54;22.25;;;19.55;;
46713;SDS011;32445;51.376;10.874;2023-03-03T19:16:40;22.63;;;18.08;;
46713;SDS011;32445;51.376;10.874;2023-03-03T19:20:00;25.58;;;18.83;;
46713;SDS011;32445;51.376;10.874;2023-03-03T19:23:18;26.10;;;20.23;;
46713;SDS011;32445;51.376;10.874;2023-03-03T19:52:17;14.33;;;13.00;;
46713;SDS011;32445;51.376;10.874;2023-03-03T20:15:18;16.58;;;14.95;;
46713;SDS011;32445;51.376;10.874;2023-03-03T20:22:03;15.98;;;14.45;;
46713;SDS011;32445;51.376;10.874;2023-03-03T20:39:01;17.05;;;15.43;;
46713;SDS011;32445;51.376;10.874;2023-03-03T20:45:31;18.52;;;16.10;;
46713;SDS011;32445;51.376;10.874;2023-03-03T20:48:39;15.77;;;13.27;;
46713;SDS011;32445;51.376;10.874;2023-03-03T20:51:56;16.15;;;14.40;;
46713;SDS011;32445;51.376;10.874;2023-03-03T20:55:47;13.32;;;12.00;;
46713;SDS011;32445;51.376;10.874;2023-03-03T21:02:01;15.93;;;14.13;;
46713;SDS011;32445;51.376;10.874;2023-03-03T21:05:15;14.90;;;13.50;;
46713;SDS011;32445;51.376;10.874;2023-03-03T21:08:17;19.73;;;16.05;;
46713;SDS011;32445;51.376;10.874;2023-03-03T21:11:19;15.10;;;13.38;;
46713;SDS011;32445;51.376;10.874;2023-03-03T21:14:22;15.25;;;13.40;;
46713;SDS011;32445;51.376;10.874;2023-03-03T21:17:24;13.10;;;11.90;;
46713;SDS011;32445;51.376;10.874;2023-03-03T21:20:28;12.95;;;11.73;;
46713;SDS011;32445;51.376;10.874;2023-03-03T21:23:29;12.73;;;11.68;;
46713;SDS011;32445;51.376;10.874;2023-03-03T21:30:02;13.63;;;12.23;;
46713;SDS011;32445;51.376;10.874;2023-03-03T21:33:03;13.47;;;12.27;;
46713;SDS011;32445;51.376;10.874;2023-03-03T21:36:03;15.15;;;13.55;;
46713;SDS011;32445;51.376;10.874;2023-03-03T21:42:38;13.60;;;12.27;;
46713;SDS011;32445;51.376;10.874;2023-03-03T21:45:40;13.55;;;12.35;;
46713;SDS011;32445;51.376;10.874;2023-03-03T21:48:43;13.50;;;12.18;;
46713;SDS011;32445;51.376;10.874;2023-03-03T21:51:43;14.50;;;11.23;;
46713;SDS011;32445;51.376;10.874;2023-03-03T21:54:44;16.40;;;14.77;;
46713;SDS011;32445;51.376;10.874;2023-03-03T21:57:45;14.27;;;12.98;;
46713;SDS011;32445;51.376;10.874;2023-03-03T22:00:46;16.45;;;14.77;;
46713;SDS011;32445;51.376;10.874;2023-03-03T22:03:46;19.35;;;15.70;;
46713;SDS011;32445;51.376;10.874;2023-03-03T22:06:47;31.27;;;20.70;;
46713;SDS011;32445;51.376;10.874;2023-03-03T22:09:47;24.50;;;19.92;;
46713;SDS011;32445;51.376;10.874;2023-03-03T22:12:47;23.80;;;17.67;;
46713;SDS011;32445;51.376;10.874;2023-03-03T22:15:48;24.52;;;17.80;;
46713;SDS011;32445;51.376;10.874;2023-03-03T22:18:48;20.90;;;17.13;;
46713;SDS011;32445;51.376;10.874;2023-03-03T22:21:49;20.23;;;16.58;;
46713;SDS011;32445;51.376;10.874;2023-03-03T22:24:50;25.48;;;18.70;;
46713;SDS011;32445;51.376;10.874;2023-03-03T22:27:50;23.25;;;17.88;;
46713;SDS011;32445;51.376;10.874;2023-03-03T22:30:51;19.50;;;16.00;;
46713;SDS011;32445;51.376;10.874;2023-03-03T22:33:51;21.65;;;17.67;;
46713;SDS011;32445;51.376;10.874;2023-03-03T22:36:51;18.85;;;16.25;;
46713;SDS011;32445;51.376;10.874;2023-03-03T22:39:52;22.90;;;17.63;;
46713;SDS011;32445;51.376;10.874;2023-03-03T22:42:52;21.73;;;18.05;;
46713;SDS011;32445;51.376;10.874;2023-03-03T22:45:52;23.55;;;19.33;;
46713;SDS011;32445;51.376;10.874;2023-03-03T22:48:53;22.25;;;18.17;;
46713;SDS011;32445;51.376;10.874;2023-03-03T22:51:53;20.02;;;16.48;;
46713;SDS011;32445;51.376;10.874;2023-03-03T22:54:54;22.30;;;18.08;;
46713;SDS011;32445;51.376;10.874;2023-03-03T22:57:56;17.67;;;15.57;;
46713;SDS011;32445;51.376;10.874;2023-03-03T23:00:57;20.20;;;17.80;;
46713;SDS011;32445;51.376;10.874;2023-03-03T23:03:57;21.60;;;18.60;;
46713;SDS011;32445;51.376;10.874;2023-03-03T23:06:58;21.73;;;16.90;;
46713;SDS011;32445;51.376;10.874;2023-03-03T23:13:00;31.98;;;19.05;;
46713;SDS011;32445;51.376;10.874;2023-03-03T23:16:00;25.35;;;18.00;;
46713;SDS011;32445;51.376;10.874;2023-03-03T23:19:01;18.67;;;14.77;;
46713;SDS011;32445;51.376;10.874;2023-03-03T23:22:02;18.73;;;15.15;;
46713;SDS011;32445;51.376;10.874;2023-03-03T23:25:02;18.15;;;15.13;;
46713;SDS011;32445;51.376;10.874;2023-03-03T23:28:03;18.15;;;14.55;;
46713;SDS011;32445;51.376;10.874;2023-03-03T23:31:04;18.48;;;13.40;;
46713;SDS011;32445;51.376;10.874;2023-03-03T23:34:04;14.77;;;12.98;;
46713;SDS011;32445;51.376;10.874;2023-03-03T23:37:05;18.02;;;14.10;;
46713;SDS011;32445;51.376;10.874;2023-03-03T23:40:05;16.00;;;13.90;;
46713;SDS011;32445;51.376;10.874;2023-03-03T23:43:06;16.03;;;14.40;;
46713;SDS011;32445;51.376;10.874;2023-03-03T23:46:07;20.70;;;15.93;;
46713;SDS011;32445;51.376;10.874;2023-03-03T23:49:07;19.00;;;15.00;;
46713;SDS011;32445;51.376;10.874;2023-03-03T23:52:08;18.95;;;15.65;;
46713;SDS011;32445;51.376;10.874;2023-03-03T23:55:09;18.92;;;16.17;;
46713;SDS011;32445;51.376;10.874;2023-03-03T23:58:10;19.53;;;14.07;;
